LIRPLIML

Guest
Details From LIRP - Pisa
To LIML - Milano Linate
Flight Number -
Tags Generated
Created
Modified
Stats Distance 117 nm / 217 km
Max Altitude 0 ft / 0 m
Waypoints 2
Social Downloads 0
Likes 0
Share VATSIM

Download

Looking for another format? Having issues loading an existing format? Contact us
Advertisement - Login to hide

Notes

Generated

Route

LIRP LIML

ID Type Via Altitude Latitude Longitude Leg Dist Tot Dist Heading (true) Name
O LIRP APT - 0 ft / 0 m 43.67384˚ 10.38072˚ - 0 nm - -
O LIML APT - 0 ft / 0 m 45.45804˚ 9.26826˚ 117 nm 117 nm 336° / 336° -

Altitude Profile

Advertisement - Login to hide

LIRP

Details ICAO LIRP (PSA)
Name PISA
Region Italy
Timezone Europe/Rome (UTC+2.0)
Stats Elevation 6 ft / 2 m (AMSL)
Location 43.683883° 10.392724°
Runways 2
Magnetic Variation 2.753° E

METAR

LIRP 260345Z 12002KT 2500 BR SCT002 14/14 Q1018 TEMPO 0800 BCFG

Decode

TAF

TAF LIRP 252300Z 2600/2624 VRB03KT 9999 SCT040 TEMPO 2600/2606 4000 BR PROB40 TEMPO 2603/2606 0800 FG BECMG 2609/2611 27010KT BECMG 2616/2618 VRB03KT

Decode

Departure Runways

ID Width Length Bearing (true) Bearing (mag) Surface Threshold Offset Overrun Length
04L 141 ft / 43 m 9,158 ft / 2,791 m 36.70° 33.95° Asphalt 979 ft / 298 m 0 ft / 0 m
04R 148 ft / 45 m 9,819 ft / 2,993 m 36.72° 33.97° Asphalt 490 ft / 149 m 0 ft / 0 m
22L 148 ft / 45 m 9,819 ft / 2,993 m 216.73° 213.98° Asphalt 843 ft / 257 m 0 ft / 0 m
22R 141 ft / 43 m 9,158 ft / 2,791 m 216.72° 213.97° Asphalt 0 ft / 0 m 0 ft / 0 m

LIML

Details ICAO LIML (LIN)
Name Milano Linate
Region Italy
Timezone Europe/Rome (UTC+2.0)
Stats Elevation 353 ft / 108 m (AMSL)
Location 45.450302° 9.272801°
Runways 2
Magnetic Variation 2.552° E

METAR

LIML 260350Z 09004KT CAVOK 20/16 Q1018 NOSIG

Decode

TAF

TAF LIML 252300Z 2600/2624 VRB05KT CAVOK

Decode

Destination Runways

ID Width Length Bearing (true) Bearing (mag) Surface Threshold Offset Overrun Length
17 72 ft / 22 m 1,975 ft / 602 m 175.64° 173.09° Asphalt 200 ft / 61 m 0 ft / 0 m
18 197 ft / 60 m 8,017 ft / 2,443 m 175.67° 173.12° Asphalt 0 ft / 0 m 190 ft / 58 m
35 72 ft / 22 m 1,975 ft / 602 m 355.64° 353.09° Asphalt 200 ft / 61 m 0 ft / 0 m
36 197 ft / 60 m 8,017 ft / 2,443 m 355.68° 353.13° Asphalt 0 ft / 0 m 980 ft / 299 m

Approach Navaids

Runway Type Ident Frequency Range Bearing (true) Bearing (mag) Slope Elevation
36 Localiser ILNT 109.55 MHz 18 nm / 33 km 355.68° 353.12° - 353 ft / 108 m (AMSL)
36 Glidescope ILNT 109.55 MHz 10 nm / 19 km 355.68° 353.12° 3.00° 352 ft / 107 m (AMSL)
36 DME ILNT 109.55 MHz 25 nm / 46 km - - - 352 ft / 107 m (AMSL)

Popular Alternatives